Impacts TAF Board INFO
FOR SITUATIONAL AWARENESS. NOT TO BE USED FOR FLIGHT PLANNING PURPOSES.
IDs:

KDTW - Detroit Metro/Wayne, MI, US

Issued at 2100 UTC 17 Dec 2017
Updated at 2131 UTC 17 Dec 2017
Potential Impact None Slight Moderate High
Time2053Z 17/22Z 17/23Z 18/00Z 18/01Z 18/02Z 18/03Z 18/04Z 18/05Z 18/06Z 18/07Z 18/08Z 18/09Z 18/10Z>>
Type OBS PRVL PRVL PRVL PRVL PRVL PRVL PRVL PRVL PRVL PRVL PRVL PRVL PRVL
  [TEMP]  
VIS 6 6 6 6 2 2 2 2 4 4 4 4 4 4
  [2]  
CIG 11 15 15 15 200 200 200 200 6 6 6 6 6 6
  [3]  
Cover OVC OVC OVC OVC BKN BKN BKN BKN OVC OVC OVC OVC OVC OVC
  [OVC]  
FltCat MVFR MVFR MVFR MVFR IFR IFR IFR IFR IFR IFR IFR IFR IFR IFR
  [LIFR]  
WX HZ HZ HZ HZ BR BR BR BR BR BR BR BR BR BR
  [BR]  
WDir 100 130 130 130 200 200 200 200 230 230 230 230 230 230
[230]
WSpd 5 5 5 5 5 5 5 5 5 5 5 5 5 5
  [5]  
WGst -- -- -- -- -- -- -- -- -- -- -- -- -- --
  [--]  

Raw TAF
KDTW 172100Z 1721/1824 13005KT 6SM HZ BKN015 OVC150
  FM180100 20005KT 2SM BR SCT006 BKN200
  FM180500 23005KT 4SM BR OVC006
  TEMPO 1810/1814 2SM BR OVC003
  FM181900 23010KT 6SM BR OVC015


Raw METAR
KDTW 172053Z 10005KT 6SM HZ OVC011 02/M01 A3008 RMK AO2 SLP194 T00221011 56015 $
KDTW 171953Z 10004KT 6SM HZ OVC011 02/M01 A3010 RMK AO2 SLP199 T00221011 $
KDTW 171937Z 10004KT 6SM HZ OVC011 02/M01 A3010 RMK AO2 T00221011 $
KDTW 171853Z 10005KT 6SM HZ OVC009 02/M01 A3011 RMK AO2 SLP201 T00171011 $

METAR Board
Radar Display
Forecast Discussion

FOR SITUATIONAL AWARENESS. NOT TO BE USED FOR FLIGHT PLANNING PURPOSES.